»·PEaware :: N7900Y KONT-KMYF

N7900Y :: KONT-KMYF

FLIGHT INFORMATION

Flight Status: Arrived
Operator: Privately registered:
United States
More flights under this callsign
Pilot: Joerg P. (23850)
Aircraft: PIPER PA-30 TWIN COMANCHE
(PA30)
More flights by this aircraft type
Origin: KONT Ontario Intl
United States
Destination: KMYF Montgomery
United States
More flights between these airports :: More routes between these airports
Route: PDZ V186 HAILE V66 MZB
File this flight plan on PilotEdge
Remarks: +CW / TEC ONTP12 ZULU WEATHER SAME WINDS AS METAR
Altitude:
(Current/Filed)
9,000ft
Speed:
(Current/Filed)
150kts
Departed: 25-Sep-19 03:40 PM
Arrived: 25-Sep-19 04:23 PM
Distance/Time
Traveled:
78nm/0:43
Distance/Time
To Go:
Arrived

Flight Plot

Page will automatically refresh every two minutes.


Map Options




Map Legend


Flown Route
Filed Route
Departure Airport
Arrival Airport
Navaid (VOR, NDB)
Fix

Horizontal Profiles

Position Reports

Time Latitude Longitude Heading Altitude Ground
Speed
25-Sep-19 15:28 34.052632 -117.600773 42 946ft 0kts
25-Sep-19 15:29 34.052632 -117.600773 42 946ft 0kts
25-Sep-19 15:30 34.052632 -117.600773 42 946ft 0kts
25-Sep-19 15:31 34.052632 -117.600773 42 946ft 0kts
25-Sep-19 15:32 34.052632 -117.600773 42 946ft 0kts
25-Sep-19 15:33 34.052632 -117.600773 42 946ft 0kts
25-Sep-19 15:34 34.052632 -117.600773 42 946ft 0kts
25-Sep-19 15:35 34.053088 -117.600787 22 946ft 11kts
25-Sep-19 15:36 34.053851 -117.595021 92 946ft 27kts
25-Sep-19 15:37 34.053838 -117.585774 90 946ft 34kts
25-Sep-19 15:38 34.053934 -117.582626 40 946ft 0kts
25-Sep-19 15:39 34.054984 -117.594566 270 1155ft 99kts
25-Sep-19 15:40 34.056756 -117.629266 273 2331ft 108kts
25-Sep-19 15:41 34.056902 -117.666254 270 3468ft 111kts
25-Sep-19 15:42 34.038621 -117.662512 119 4412ft 112kts
25-Sep-19 15:43 34.013875 -117.642917 147 5565ft 109kts
25-Sep-19 15:44 33.995009 -117.615569 146 6807ft 112kts
25-Sep-19 15:45 33.969410 -117.593771 120 8008ft 113kts
25-Sep-19 15:46 33.947044 -117.566624 136 9005ft 126kts
25-Sep-19 15:47 33.920977 -117.530654 132 9036ft 157kts
25-Sep-19 15:48 33.885947 -117.497663 143 9060ft 162kts
25-Sep-19 15:49 33.850611 -117.464709 158 9010ft 167kts
25-Sep-19 15:50 33.812653 -117.431937 148 8915ft 166kts
25-Sep-19 15:51 33.775703 -117.400056 136 9024ft 164kts
25-Sep-19 15:52 33.737087 -117.368279 143 9025ft 164kts
25-Sep-19 15:53 33.700199 -117.333656 135 9028ft 162kts
25-Sep-19 15:54 33.666949 -117.295606 148 9032ft 166kts
25-Sep-19 15:55 33.639514 -117.253603 140 8999ft 163kts
25-Sep-19 15:56 33.603716 -117.221868 136 9134ft 151kts
25-Sep-19 15:57 33.563727 -117.199855 146 9082ft 155kts
25-Sep-19 15:58 33.524691 -117.174177 143 8999ft 158kts
25-Sep-19 15:59 33.487261 -117.144789 160 8955ft 158kts
25-Sep-19 16:00 33.442430 -117.137695 180 8957ft 157kts
25-Sep-19 16:01 33.398684 -117.131308 164 9033ft 155kts
25-Sep-19 16:02 33.354329 -117.120528 162 8982ft 155kts
25-Sep-19 16:03 33.310455 -117.112014 171 9027ft 156kts
25-Sep-19 16:04 33.266559 -117.101142 159 8715ft 168kts
25-Sep-19 16:05 33.220983 -117.084445 166 8101ft 165kts
25-Sep-19 16:06 33.173158 -117.073078 158 7114ft 171kts
25-Sep-19 16:07 33.127640 -117.053368 155 6288ft 168kts
25-Sep-19 16:08 33.083285 -117.035278 162 5966ft 161kts
25-Sep-19 16:09 33.041213 -117.014523 147 5526ft 165kts
25-Sep-19 16:10 33.001805 -116.987604 141 5038ft 156kts
25-Sep-19 16:11 32.962785 -116.964463 162 4912ft 153kts
25-Sep-19 16:12 32.922264 -116.946428 153 4685ft 155kts
25-Sep-19 16:13 32.881227 -116.926136 143 4011ft 157kts
25-Sep-19 16:15 32.839972 -116.914145 188 3614ft 158kts
25-Sep-19 16:16 32.796668 -116.929006 193 3053ft 153kts
25-Sep-19 16:17 32.761848 -116.951654 254 2919ft 148kts
25-Sep-19 16:18 32.761927 -117.001568 283 2767ft 153kts
25-Sep-19 16:19 32.779897 -117.045916 295 2027ft 150kts
25-Sep-19 16:20 32.793789 -117.081029 297 1194ft 99kts
25-Sep-19 16:21 32.803803 -117.109227 296 911ft 104kts
25-Sep-19 16:22 32.814072 -117.134341 294 430ft 67kts
25-Sep-19 16:23 32.815827 -117.140788 236 428ft 0kts
25-Sep-19 16:24 32.814360 -117.141455 185 428ft 10kts

Navigation Log

Ident Type
Flight plan parsing failed, navigation log unavailable